sensor_id;sensor_type;location;lat;lon;timestamp;P1;durP1;ratioP1;P2;durP2;ratioP2
57335;SDS011;43171;50.994;18.204;2022-07-09T00:00:07;9.00;;;2.20;;
57335;SDS011;43171;50.994;18.204;2022-07-09T00:02:52;7.10;;;2.40;;
57335;SDS011;43171;50.994;18.204;2022-07-09T00:05:36;5.90;;;2.30;;
57335;SDS011;43171;50.994;18.204;2022-07-09T00:08:20;6.60;;;2.10;;
57335;SDS011;43171;50.994;18.204;2022-07-09T00:11:04;6.00;;;2.30;;
57335;SDS011;43171;50.994;18.204;2022-07-09T00:13:48;5.40;;;2.40;;
57335;SDS011;43171;50.994;18.204;2022-07-09T00:16:32;6.00;;;2.20;;
57335;SDS011;43171;50.994;18.204;2022-07-09T00:19:17;9.10;;;2.60;;
57335;SDS011;43171;50.994;18.204;2022-07-09T00:22:01;6.50;;;2.10;;
57335;SDS011;43171;50.994;18.204;2022-07-09T00:24:45;5.60;;;1.70;;
57335;SDS011;43171;50.994;18.204;2022-07-09T00:27:29;5.40;;;1.80;;
57335;SDS011;43171;50.994;18.204;2022-07-09T00:30:13;6.10;;;2.00;;
57335;SDS011;43171;50.994;18.204;2022-07-09T00:32:57;8.00;;;2.10;;
57335;SDS011;43171;50.994;18.204;2022-07-09T00:35:41;6.80;;;2.00;;
57335;SDS011;43171;50.994;18.204;2022-07-09T00:38:25;6.50;;;2.00;;
57335;SDS011;43171;50.994;18.204;2022-07-09T00:41:09;8.60;;;2.10;;
57335;SDS011;43171;50.994;18.204;2022-07-09T00:43:54;5.10;;;1.80;;
57335;SDS011;43171;50.994;18.204;2022-07-09T00:50:19;8.20;;;2.40;;
57335;SDS011;43171;50.994;18.204;2022-07-09T00:53:05;9.80;;;2.40;;
57335;SDS011;43171;50.994;18.204;2022-07-09T00:55:52;8.80;;;2.20;;
57335;SDS011;43171;50.994;18.204;2022-07-09T00:58:38;7.60;;;1.80;;
57335;SDS011;43171;50.994;18.204;2022-07-09T01:01:27;8.10;;;2.00;;
57335;SDS011;43171;50.994;18.204;2022-07-09T01:04:13;6.10;;;2.10;;
57335;SDS011;43171;50.994;18.204;2022-07-09T01:07:01;5.80;;;1.90;;
57335;SDS011;43171;50.994;18.204;2022-07-09T01:09:47;7.40;;;2.00;;
57335;SDS011;43171;50.994;18.204;2022-07-09T01:12:33;6.70;;;2.10;;
57335;SDS011;43171;50.994;18.204;2022-07-09T01:15:18;7.00;;;1.90;;
57335;SDS011;43171;50.994;18.204;2022-07-09T01:18:04;5.50;;;2.10;;
57335;SDS011;43171;50.994;18.204;2022-07-09T01:20:50;7.10;;;2.20;;
57335;SDS011;43171;50.994;18.204;2022-07-09T01:23:36;8.20;;;2.10;;
57335;SDS011;43171;50.994;18.204;2022-07-09T01:26:24;9.30;;;2.50;;
57335;SDS011;43171;50.994;18.204;2022-07-09T01:29:10;6.20;;;3.00;;
57335;SDS011;43171;50.994;18.204;2022-07-09T01:31:56;7.40;;;3.80;;
57335;SDS011;43171;50.994;18.204;2022-07-09T01:34:41;9.30;;;3.90;;
57335;SDS011;43171;50.994;18.204;2022-07-09T01:37:27;5.60;;;3.10;;
57335;SDS011;43171;50.994;18.204;2022-07-09T01:40:13;5.50;;;2.90;;
57335;SDS011;43171;50.994;18.204;2022-07-09T01:42:58;5.50;;;2.80;;
57335;SDS011;43171;50.994;18.204;2022-07-09T01:45:44;5.40;;;2.40;;
57335;SDS011;43171;50.994;18.204;2022-07-09T01:48:32;6.40;;;2.30;;
57335;SDS011;43171;50.994;18.204;2022-07-09T01:51:20;5.80;;;2.50;;
57335;SDS011;43171;50.994;18.204;2022-07-09T01:54:06;6.50;;;2.60;;
57335;SDS011;43171;50.994;18.204;2022-07-09T01:56:52;6.40;;;2.60;;
57335;SDS011;43171;50.994;18.204;2022-07-09T01:59:37;5.80;;;2.60;;
57335;SDS011;43171;50.994;18.204;2022-07-09T02:02:24;6.30;;;3.10;;
57335;SDS011;43171;50.994;18.204;2022-07-09T02:05:10;7.40;;;3.90;;
57335;SDS011;43171;50.994;18.204;2022-07-09T02:07:56;7.40;;;3.80;;
57335;SDS011;43171;50.994;18.204;2022-07-09T02:10:41;8.30;;;4.30;;
57335;SDS011;43171;50.994;18.204;2022-07-09T02:13:27;8.10;;;4.60;;
57335;SDS011;43171;50.994;18.204;2022-07-09T02:16:12;7.70;;;4.50;;
57335;SDS011;43171;50.994;18.204;2022-07-09T02:18:57;10.70;;;4.80;;
57335;SDS011;43171;50.994;18.204;2022-07-09T02:21:43;8.20;;;4.30;;
57335;SDS011;43171;50.994;18.204;2022-07-09T02:24:29;6.30;;;3.70;;
57335;SDS011;43171;50.994;18.204;2022-07-09T02:27:14;6.80;;;3.40;;
57335;SDS011;43171;50.994;18.204;2022-07-09T02:30:00;7.90;;;3.70;;
57335;SDS011;43171;50.994;18.204;2022-07-09T02:32:45;7.00;;;3.70;;
57335;SDS011;43171;50.994;18.204;2022-07-09T02:35:31;6.60;;;3.80;;
57335;SDS011;43171;50.994;18.204;2022-07-09T02:38:18;9.90;;;4.20;;
57335;SDS011;43171;50.994;18.204;2022-07-09T02:41:05;8.80;;;4.40;;
57335;SDS011;43171;50.994;18.204;2022-07-09T02:43:50;9.60;;;5.30;;
57335;SDS011;43171;50.994;18.204;2022-07-09T02:46:39;7.60;;;4.60;;
57335;SDS011;43171;50.994;18.204;2022-07-09T02:49:25;11.00;;;5.40;;
57335;SDS011;43171;50.994;18.204;2022-07-09T02:52:13;8.70;;;5.30;;
57335;SDS011;43171;50.994;18.204;2022-07-09T02:54:59;10.90;;;5.80;;
57335;SDS011;43171;50.994;18.204;2022-07-09T02:57:44;9.40;;;5.70;;
57335;SDS011;43171;50.994;18.204;2022-07-09T03:00:30;10.00;;;5.80;;
57335;SDS011;43171;50.994;18.204;2022-07-09T03:03:15;10.80;;;6.90;;
57335;SDS011;43171;50.994;18.204;2022-07-09T03:06:03;12.10;;;8.30;;
57335;SDS011;43171;50.994;18.204;2022-07-09T03:08:52;11.00;;;7.40;;
57335;SDS011;43171;50.994;18.204;2022-07-09T03:11:37;13.50;;;8.30;;
57335;SDS011;43171;50.994;18.204;2022-07-09T03:14:24;11.30;;;7.40;;
57335;SDS011;43171;50.994;18.204;2022-07-09T03:17:12;9.10;;;6.60;;
57335;SDS011;43171;50.994;18.204;2022-07-09T03:19:59;10.40;;;6.50;;
57335;SDS011;43171;50.994;18.204;2022-07-09T03:22:44;9.40;;;6.50;;
57335;SDS011;43171;50.994;18.204;2022-07-09T03:25:30;11.40;;;6.80;;
57335;SDS011;43171;50.994;18.204;2022-07-09T03:28:16;11.70;;;6.10;;
57335;SDS011;43171;50.994;18.204;2022-07-09T03:31:01;11.60;;;6.30;;
57335;SDS011;43171;50.994;18.204;2022-07-09T03:33:48;11.30;;;5.90;;
57335;SDS011;43171;50.994;18.204;2022-07-09T03:36:37;6.10;;;4.90;;
57335;SDS011;43171;50.994;18.204;2022-07-09T03:39:23;7.90;;;4.90;;
57335;SDS011;43171;50.994;18.204;2022-07-09T03:42:08;10.90;;;5.60;;
57335;SDS011;43171;50.994;18.204;2022-07-09T03:44:54;10.40;;;6.40;;
57335;SDS011;43171;50.994;18.204;2022-07-09T03:47:40;14.80;;;7.70;;
57335;SDS011;43171;50.994;18.204;2022-07-09T03:50:25;9.50;;;7.80;;
57335;SDS011;43171;50.994;18.204;2022-07-09T03:53:11;12.00;;;7.80;;
57335;SDS011;43171;50.994;18.204;2022-07-09T03:55:57;7.40;;;5.20;;
57335;SDS011;43171;50.994;18.204;2022-07-09T03:58:42;8.80;;;4.30;;
57335;SDS011;43171;50.994;18.204;2022-07-09T04:01:28;5.40;;;3.80;;
57335;SDS011;43171;50.994;18.204;2022-07-09T04:04:13;6.30;;;3.60;;
57335;SDS011;43171;50.994;18.204;2022-07-09T04:06:59;5.90;;;3.50;;
57335;SDS011;43171;50.994;18.204;2022-07-09T04:09:44;8.00;;;4.00;;
57335;SDS011;43171;50.994;18.204;2022-07-09T04:12:30;6.90;;;4.10;;
57335;SDS011;43171;50.994;18.204;2022-07-09T04:15:15;7.60;;;3.70;;
57335;SDS011;43171;50.994;18.204;2022-07-09T04:18:01;6.80;;;3.80;;
57335;SDS011;43171;50.994;18.204;2022-07-09T04:20:47;5.80;;;3.60;;
57335;SDS011;43171;50.994;18.204;2022-07-09T04:23:32;6.40;;;3.80;;
57335;SDS011;43171;50.994;18.204;2022-07-09T04:26:20;6.40;;;3.50;;
57335;SDS011;43171;50.994;18.204;2022-07-09T04:29:08;7.80;;;3.90;;
57335;SDS011;43171;50.994;18.204;2022-07-09T04:31:55;6.40;;;3.40;;
57335;SDS011;43171;50.994;18.204;2022-07-09T04:34:41;5.90;;;3.90;;
57335;SDS011;43171;50.994;18.204;2022-07-09T04:37:28;5.70;;;4.50;;
57335;SDS011;43171;50.994;18.204;2022-07-09T04:40:14;6.20;;;3.70;;
57335;SDS011;43171;50.994;18.204;2022-07-09T04:42:59;5.70;;;3.40;;
57335;SDS011;43171;50.994;18.204;2022-07-09T04:45:43;5.10;;;2.90;;
57335;SDS011;43171;50.994;18.204;2022-07-09T04:48:27;5.00;;;3.20;;
57335;SDS011;43171;50.994;18.204;2022-07-09T04:51:11;5.10;;;3.40;;
57335;SDS011;43171;50.994;18.204;2022-07-09T04:53:55;7.70;;;3.50;;
57335;SDS011;43171;50.994;18.204;2022-07-09T04:56:40;5.50;;;3.90;;
57335;SDS011;43171;50.994;18.204;2022-07-09T04:59:24;4.30;;;3.70;;
57335;SDS011;43171;50.994;18.204;2022-07-09T05:02:08;7.20;;;4.70;;
57335;SDS011;43171;50.994;18.204;2022-07-09T05:04:52;5.50;;;3.90;;
57335;SDS011;43171;50.994;18.204;2022-07-09T05:07:36;6.50;;;3.60;;
57335;SDS011;43171;50.994;18.204;2022-07-09T05:10:20;5.40;;;3.30;;
57335;SDS011;43171;50.994;18.204;2022-07-09T05:13:04;5.60;;;3.10;;
57335;SDS011;43171;50.994;18.204;2022-07-09T05:15:49;4.20;;;3.00;;
57335;SDS011;43171;50.994;18.204;2022-07-09T05:22:14;4.40;;;2.70;;
57335;SDS011;43171;50.994;18.204;2022-07-09T05:24:59;7.00;;;3.20;;
57335;SDS011;43171;50.994;18.204;2022-07-09T05:27:45;5.90;;;3.10;;
57335;SDS011;43171;50.994;18.204;2022-07-09T05:30:30;7.00;;;3.20;;
57335;SDS011;43171;50.994;18.204;2022-07-09T05:33:30;4.90;;;3.10;;
57335;SDS011;43171;50.994;18.204;2022-07-09T05:36:14;6.70;;;3.50;;
57335;SDS011;43171;50.994;18.204;2022-07-09T05:38:58;5.90;;;2.90;;
57335;SDS011;43171;50.994;18.204;2022-07-09T05:45:25;4.80;;;3.20;;
57335;SDS011;43171;50.994;18.204;2022-07-09T05:48:18;4.40;;;2.60;;
57335;SDS011;43171;50.994;18.204;2022-07-09T05:51:03;5.50;;;2.70;;
57335;SDS011;43171;50.994;18.204;2022-07-09T05:53:50;6.40;;;3.20;;
57335;SDS011;43171;50.994;18.204;2022-07-09T05:56:34;5.20;;;2.90;;
57335;SDS011;43171;50.994;18.204;2022-07-09T05:59:20;5.50;;;3.00;;
57335;SDS011;43171;50.994;18.204;2022-07-09T06:02:14;4.90;;;2.80;;
57335;SDS011;43171;50.994;18.204;2022-07-09T06:04:58;3.70;;;2.80;;
57335;SDS011;43171;50.994;18.204;2022-07-09T06:07:42;4.60;;;2.60;;
57335;SDS011;43171;50.994;18.204;2022-07-09T06:11:01;6.80;;;2.70;;
57335;SDS011;43171;50.994;18.204;2022-07-09T06:13:48;4.80;;;2.90;;
57335;SDS011;43171;50.994;18.204;2022-07-09T06:16:33;6.60;;;3.30;;
57335;SDS011;43171;50.994;18.204;2022-07-09T06:19:23;4.80;;;2.80;;
57335;SDS011;43171;50.994;18.204;2022-07-09T06:22:08;4.90;;;2.90;;
57335;SDS011;43171;50.994;18.204;2022-07-09T06:24:57;6.50;;;3.10;;
57335;SDS011;43171;50.994;18.204;2022-07-09T06:27:45;4.60;;;2.90;;
57335;SDS011;43171;50.994;18.204;2022-07-09T06:30:31;4.80;;;2.80;;
57335;SDS011;43171;50.994;18.204;2022-07-09T06:33:17;6.10;;;2.70;;
57335;SDS011;43171;50.994;18.204;2022-07-09T06:36:01;6.60;;;2.90;;
57335;SDS011;43171;50.994;18.204;2022-07-09T06:39:09;3.10;;;2.40;;
57335;SDS011;43171;50.994;18.204;2022-07-09T06:44:59;4.40;;;3.00;;
57335;SDS011;43171;50.994;18.204;2022-07-09T06:47:43;6.70;;;3.20;;
57335;SDS011;43171;50.994;18.204;2022-07-09T06:50:27;4.10;;;3.00;;
57335;SDS011;43171;50.994;18.204;2022-07-09T06:53:11;6.20;;;2.70;;
57335;SDS011;43171;50.994;18.204;2022-07-09T06:55:55;6.20;;;2.90;;
57335;SDS011;43171;50.994;18.204;2022-07-09T06:58:39;4.30;;;2.40;;
57335;SDS011;43171;50.994;18.204;2022-07-09T07:01:23;5.20;;;2.80;;
57335;SDS011;43171;50.994;18.204;2022-07-09T07:04:08;5.00;;;2.60;;
57335;SDS011;43171;50.994;18.204;2022-07-09T07:06:52;4.70;;;2.40;;
57335;SDS011;43171;50.994;18.204;2022-07-09T07:09:46;5.90;;;2.40;;
57335;SDS011;43171;50.994;18.204;2022-07-09T07:12:30;4.90;;;2.30;;
57335;SDS011;43171;50.994;18.204;2022-07-09T07:15:21;4.50;;;2.60;;
57335;SDS011;43171;50.994;18.204;2022-07-09T07:18:05;3.10;;;2.00;;
57335;SDS011;43171;50.994;18.204;2022-07-09T07:20:49;5.40;;;2.30;;
57335;SDS011;43171;50.994;18.204;2022-07-09T07:23:33;4.00;;;2.20;;
57335;SDS011;43171;50.994;18.204;2022-07-09T07:26:17;3.40;;;2.00;;
57335;SDS011;43171;50.994;18.204;2022-07-09T07:29:01;3.40;;;2.00;;
57335;SDS011;43171;50.994;18.204;2022-07-09T07:31:46;4.20;;;2.00;;
57335;SDS011;43171;50.994;18.204;2022-07-09T07:34:30;3.60;;;2.10;;
57335;SDS011;43171;50.994;18.204;2022-07-09T07:37:14;3.50;;;2.10;;
57335;SDS011;43171;50.994;18.204;2022-07-09T07:39:58;4.70;;;1.80;;
57335;SDS011;43171;50.994;18.204;2022-07-09T07:42:43;3.80;;;1.60;;
57335;SDS011;43171;50.994;18.204;2022-07-09T07:45:27;3.60;;;1.50;;
57335;SDS011;43171;50.994;18.204;2022-07-09T07:48:13;4.60;;;1.70;;
57335;SDS011;43171;50.994;18.204;2022-07-09T07:51:18;3.60;;;1.90;;
57335;SDS011;43171;50.994;18.204;2022-07-09T07:54:02;3.20;;;1.70;;
57335;SDS011;43171;50.994;18.204;2022-07-09T07:56:55;2.50;;;1.40;;
57335;SDS011;43171;50.994;18.204;2022-07-09T07:59:39;3.50;;;1.80;;
57335;SDS011;43171;50.994;18.204;2022-07-09T08:02:24;4.00;;;1.80;;
57335;SDS011;43171;50.994;18.204;2022-07-09T08:05:09;4.70;;;1.90;;
57335;SDS011;43171;50.994;18.204;2022-07-09T08:07:53;5.20;;;2.00;;
57335;SDS011;43171;50.994;18.204;2022-07-09T08:10:39;2.70;;;1.70;;
57335;SDS011;43171;50.994;18.204;2022-07-09T08:13:25;4.80;;;1.70;;
57335;SDS011;43171;50.994;18.204;2022-07-09T08:16:09;2.20;;;1.60;;
57335;SDS011;43171;50.994;18.204;2022-07-09T08:18:53;2.70;;;2.00;;
57335;SDS011;43171;50.994;18.204;2022-07-09T08:21:44;5.80;;;1.80;;
57335;SDS011;43171;50.994;18.204;2022-07-09T08:24:37;2.70;;;1.70;;
57335;SDS011;43171;50.994;18.204;2022-07-09T08:27:21;3.50;;;1.60;;
57335;SDS011;43171;50.994;18.204;2022-07-09T08:30:11;3.80;;;1.80;;
57335;SDS011;43171;50.994;18.204;2022-07-09T08:32:55;3.30;;;1.80;;
57335;SDS011;43171;50.994;18.204;2022-07-09T08:35:39;3.90;;;2.00;;
57335;SDS011;43171;50.994;18.204;2022-07-09T08:38:24;4.30;;;1.90;;
57335;SDS011;43171;50.994;18.204;2022-07-09T08:41:08;5.60;;;2.10;;
57335;SDS011;43171;50.994;18.204;2022-07-09T08:43:52;3.00;;;1.70;;
57335;SDS011;43171;50.994;18.204;2022-07-09T08:46:38;3.90;;;1.90;;
57335;SDS011;43171;50.994;18.204;2022-07-09T08:49:23;2.10;;;1.30;;
57335;SDS011;43171;50.994;18.204;2022-07-09T08:52:12;3.00;;;1.50;;
57335;SDS011;43171;50.994;18.204;2022-07-09T08:55:01;2.40;;;1.30;;
57335;SDS011;43171;50.994;18.204;2022-07-09T08:57:45;3.70;;;1.40;;
57335;SDS011;43171;50.994;18.204;2022-07-09T09:00:29;4.00;;;1.40;;
57335;SDS011;43171;50.994;18.204;2022-07-09T09:03:17;3.00;;;1.50;;
57335;SDS011;43171;50.994;18.204;2022-07-09T09:06:11;2.50;;;1.50;;
57335;SDS011;43171;50.994;18.204;2022-07-09T09:08:57;2.00;;;1.20;;
57335;SDS011;43171;50.994;18.204;2022-07-09T09:11:41;3.90;;;1.30;;
57335;SDS011;43171;50.994;18.204;2022-07-09T09:14:29;2.40;;;1.20;;
57335;SDS011;43171;50.994;18.204;2022-07-09T09:17:14;3.40;;;1.20;;
57335;SDS011;43171;50.994;18.204;2022-07-09T09:19:58;2.40;;;1.10;;
57335;SDS011;43171;50.994;18.204;2022-07-09T09:22:49;4.70;;;1.70;;
57335;SDS011;43171;50.994;18.204;2022-07-09T09:25:46;3.70;;;1.30;;
57335;SDS011;43171;50.994;18.204;2022-07-09T09:28:30;3.80;;;1.60;;
57335;SDS011;43171;50.994;18.204;2022-07-09T09:34:15;3.30;;;1.10;;
57335;SDS011;43171;50.994;18.204;2022-07-09T09:37:00;4.90;;;1.30;;
57335;SDS011;43171;50.994;18.204;2022-07-09T09:39:49;2.90;;;1.10;;
57335;SDS011;43171;50.994;18.204;2022-07-09T09:42:40;2.40;;;1.00;;
57335;SDS011;43171;50.994;18.204;2022-07-09T09:45:26;1.80;;;1.10;;
57335;SDS011;43171;50.994;18.204;2022-07-09T09:48:11;2.10;;;1.00;;
57335;SDS011;43171;50.994;18.204;2022-07-09T09:50:56;2.20;;;0.80;;
57335;SDS011;43171;50.994;18.204;2022-07-09T09:53:43;2.30;;;0.90;;
57335;SDS011;43171;50.994;18.204;2022-07-09T09:56:28;2.90;;;1.00;;
57335;SDS011;43171;50.994;18.204;2022-07-09T09:59:12;3.10;;;1.00;;
57335;SDS011;43171;50.994;18.204;2022-07-09T10:02:00;2.80;;;0.90;;
57335;SDS011;43171;50.994;18.204;2022-07-09T10:04:45;2.10;;;0.90;;
57335;SDS011;43171;50.994;18.204;2022-07-09T10:07:29;2.20;;;1.10;;
57335;SDS011;43171;50.994;18.204;2022-07-09T10:10:19;2.50;;;1.00;;
57335;SDS011;43171;50.994;18.204;2022-07-09T10:13:04;2.50;;;1.10;;
57335;SDS011;43171;50.994;18.204;2022-07-09T10:15:48;1.30;;;1.00;;
57335;SDS011;43171;50.994;18.204;2022-07-09T10:18:33;2.60;;;0.90;;
57335;SDS011;43171;50.994;18.204;2022-07-09T10:21:17;3.00;;;1.00;;
57335;SDS011;43171;50.994;18.204;2022-07-09T10:24:05;3.30;;;1.20;;
57335;SDS011;43171;50.994;18.204;2022-07-09T10:26:50;1.60;;;1.10;;
57335;SDS011;43171;50.994;18.204;2022-07-09T10:29:35;2.50;;;1.10;;
57335;SDS011;43171;50.994;18.204;2022-07-09T10:32:21;2.80;;;1.20;;
57335;SDS011;43171;50.994;18.204;2022-07-09T10:35:09;2.70;;;1.20;;
57335;SDS011;43171;50.994;18.204;2022-07-09T10:37:54;1.70;;;1.10;;
57335;SDS011;43171;50.994;18.204;2022-07-09T10:40:57;2.20;;;1.10;;
57335;SDS011;43171;50.994;18.204;2022-07-09T10:43:52;4.00;;;1.20;;
57335;SDS011;43171;50.994;18.204;2022-07-09T10:46:37;2.10;;;1.10;;
57335;SDS011;43171;50.994;18.204;2022-07-09T10:49:21;2.20;;;1.00;;
57335;SDS011;43171;50.994;18.204;2022-07-09T10:52:05;3.10;;;1.20;;
57335;SDS011;43171;50.994;18.204;2022-07-09T10:54:50;2.50;;;1.00;;
57335;SDS011;43171;50.994;18.204;2022-07-09T10:57:36;4.00;;;1.20;;
57335;SDS011;43171;50.994;18.204;2022-07-09T11:00:21;2.90;;;0.90;;
57335;SDS011;43171;50.994;18.204;2022-07-09T11:03:06;2.20;;;1.00;;
57335;SDS011;43171;50.994;18.204;2022-07-09T11:05:50;2.10;;;0.90;;
57335;SDS011;43171;50.994;18.204;2022-07-09T11:08:34;2.90;;;1.00;;
57335;SDS011;43171;50.994;18.204;2022-07-09T11:11:25;1.10;;;0.80;;
57335;SDS011;43171;50.994;18.204;2022-07-09T11:14:09;1.50;;;0.90;;
57335;SDS011;43171;50.994;18.204;2022-07-09T11:16:58;1.80;;;0.90;;
57335;SDS011;43171;50.994;18.204;2022-07-09T11:19:45;1.80;;;1.10;;
57335;SDS011;43171;50.994;18.204;2022-07-09T11:22:45;2.60;;;0.90;;
57335;SDS011;43171;50.994;18.204;2022-07-09T11:25:31;2.00;;;1.10;;
57335;SDS011;43171;50.994;18.204;2022-07-09T11:28:23;1.60;;;0.90;;
57335;SDS011;43171;50.994;18.204;2022-07-09T11:31:08;2.00;;;1.00;;
57335;SDS011;43171;50.994;18.204;2022-07-09T11:33:52;1.50;;;0.90;;
57335;SDS011;43171;50.994;18.204;2022-07-09T11:36:58;4.10;;;1.20;;
57335;SDS011;43171;50.994;18.204;2022-07-09T11:39:50;1.70;;;0.90;;
57335;SDS011;43171;50.994;18.204;2022-07-09T11:42:41;2.40;;;1.00;;
57335;SDS011;43171;50.994;18.204;2022-07-09T11:45:27;2.00;;;0.90;;
57335;SDS011;43171;50.994;18.204;2022-07-09T11:48:11;1.60;;;1.10;;
57335;SDS011;43171;50.994;18.204;2022-07-09T11:50:56;3.10;;;1.10;;
57335;SDS011;43171;50.994;18.204;2022-07-09T11:53:41;3.20;;;1.10;;
57335;SDS011;43171;50.994;18.204;2022-07-09T11:56:41;2.40;;;0.90;;
57335;SDS011;43171;50.994;18.204;2022-07-09T12:02:33;2.40;;;1.00;;
57335;SDS011;43171;50.994;18.204;2022-07-09T12:05:25;1.90;;;1.10;;
57335;SDS011;43171;50.994;18.204;2022-07-09T12:08:10;2.00;;;0.90;;
57335;SDS011;43171;50.994;18.204;2022-07-09T12:10:55;2.40;;;1.00;;
57335;SDS011;43171;50.994;18.204;2022-07-09T12:13:39;1.70;;;0.90;;
57335;SDS011;43171;50.994;18.204;2022-07-09T12:16:24;2.10;;;0.90;;
57335;SDS011;43171;50.994;18.204;2022-07-09T12:19:08;2.60;;;1.10;;
57335;SDS011;43171;50.994;18.204;2022-07-09T12:21:52;2.40;;;1.00;;
57335;SDS011;43171;50.994;18.204;2022-07-09T12:24:36;1.90;;;0.90;;
57335;SDS011;43171;50.994;18.204;2022-07-09T12:27:20;1.50;;;0.80;;
57335;SDS011;43171;50.994;18.204;2022-07-09T12:30:05;2.60;;;1.00;;
57335;SDS011;43171;50.994;18.204;2022-07-09T12:32:50;1.20;;;0.90;;
57335;SDS011;43171;50.994;18.204;2022-07-09T12:35:34;2.50;;;1.00;;
57335;SDS011;43171;50.994;18.204;2022-07-09T12:38:18;2.10;;;1.00;;
57335;SDS011;43171;50.994;18.204;2022-07-09T12:41:02;3.10;;;1.00;;
57335;SDS011;43171;50.994;18.204;2022-07-09T12:43:46;1.80;;;0.90;;
57335;SDS011;43171;50.994;18.204;2022-07-09T12:46:33;3.00;;;1.00;;
57335;SDS011;43171;50.994;18.204;2022-07-09T12:49:18;1.60;;;0.80;;
57335;SDS011;43171;50.994;18.204;2022-07-09T12:52:03;2.10;;;0.90;;
57335;SDS011;43171;50.994;18.204;2022-07-09T12:54:47;2.00;;;0.90;;
57335;SDS011;43171;50.994;18.204;2022-07-09T12:57:31;2.50;;;0.90;;
57335;SDS011;43171;50.994;18.204;2022-07-09T13:00:15;1.90;;;0.90;;
57335;SDS011;43171;50.994;18.204;2022-07-09T13:02:59;2.70;;;0.90;;
57335;SDS011;43171;50.994;18.204;2022-07-09T13:05:44;2.40;;;1.00;;
57335;SDS011;43171;50.994;18.204;2022-07-09T13:08:28;4.10;;;1.10;;
57335;SDS011;43171;50.994;18.204;2022-07-09T13:11:12;2.30;;;1.20;;
57335;SDS011;43171;50.994;18.204;2022-07-09T13:13:56;2.50;;;0.90;;
57335;SDS011;43171;50.994;18.204;2022-07-09T13:16:40;2.10;;;0.90;;
57335;SDS011;43171;50.994;18.204;2022-07-09T13:19:24;2.50;;;1.30;;
57335;SDS011;43171;50.994;18.204;2022-07-09T13:22:09;2.10;;;1.00;;
57335;SDS011;43171;50.994;18.204;2022-07-09T13:24:53;1.70;;;1.00;;
57335;SDS011;43171;50.994;18.204;2022-07-09T13:27:37;3.00;;;0.90;;
57335;SDS011;43171;50.994;18.204;2022-07-09T13:30:21;1.60;;;0.90;;
57335;SDS011;43171;50.994;18.204;2022-07-09T13:33:05;3.50;;;0.90;;
57335;SDS011;43171;50.994;18.204;2022-07-09T13:35:49;2.40;;;0.90;;
57335;SDS011;43171;50.994;18.204;2022-07-09T13:38:33;2.90;;;1.10;;
57335;SDS011;43171;50.994;18.204;2022-07-09T13:41:17;2.60;;;1.10;;
57335;SDS011;43171;50.994;18.204;2022-07-09T13:44:02;5.50;;;1.10;;
57335;SDS011;43171;50.994;18.204;2022-07-09T13:46:47;2.20;;;1.10;;
57335;SDS011;43171;50.994;18.204;2022-07-09T13:49:37;2.60;;;1.10;;
57335;SDS011;43171;50.994;18.204;2022-07-09T13:52:21;2.40;;;1.20;;
57335;SDS011;43171;50.994;18.204;2022-07-09T13:55:06;2.30;;;1.20;;
57335;SDS011;43171;50.994;18.204;2022-07-09T13:57:50;2.30;;;1.00;;
57335;SDS011;43171;50.994;18.204;2022-07-09T14:00:34;2.60;;;1.30;;
57335;SDS011;43171;50.994;18.204;2022-07-09T14:03:18;2.50;;;1.00;;
57335;SDS011;43171;50.994;18.204;2022-07-09T14:06:02;2.00;;;1.10;;
57335;SDS011;43171;50.994;18.204;2022-07-09T14:08:47;5.00;;;1.10;;
57335;SDS011;43171;50.994;18.204;2022-07-09T14:11:31;2.10;;;1.00;;
57335;SDS011;43171;50.994;18.204;2022-07-09T14:14:15;2.30;;;1.10;;
57335;SDS011;43171;50.994;18.204;2022-07-09T14:17:00;2.50;;;1.00;;
57335;SDS011;43171;50.994;18.204;2022-07-09T14:19:44;2.70;;;1.10;;
57335;SDS011;43171;50.994;18.204;2022-07-09T14:22:28;2.00;;;1.10;;
57335;SDS011;43171;50.994;18.204;2022-07-09T14:25:12;3.70;;;1.20;;
57335;SDS011;43171;50.994;18.204;2022-07-09T14:27:57;2.90;;;1.20;;
57335;SDS011;43171;50.994;18.204;2022-07-09T14:30:41;1.20;;;0.90;;
57335;SDS011;43171;50.994;18.204;2022-07-09T14:33:25;2.00;;;1.20;;
57335;SDS011;43171;50.994;18.204;2022-07-09T14:36:09;1.70;;;1.10;;
57335;SDS011;43171;50.994;18.204;2022-07-09T14:38:53;2.90;;;1.20;;
57335;SDS011;43171;50.994;18.204;2022-07-09T14:41:37;2.30;;;1.30;;
57335;SDS011;43171;50.994;18.204;2022-07-09T14:44:21;1.90;;;1.20;;
57335;SDS011;43171;50.994;18.204;2022-07-09T14:47:08;2.60;;;1.60;;
57335;SDS011;43171;50.994;18.204;2022-07-09T14:49:52;4.10;;;1.50;;
57335;SDS011;43171;50.994;18.204;2022-07-09T14:52:38;5.10;;;1.40;;
57335;SDS011;43171;50.994;18.204;2022-07-09T14:55:22;2.20;;;1.50;;
57335;SDS011;43171;50.994;18.204;2022-07-09T14:58:06;2.20;;;1.40;;
57335;SDS011;43171;50.994;18.204;2022-07-09T15:00:51;3.10;;;1.50;;
57335;SDS011;43171;50.994;18.204;2022-07-09T15:03:35;4.60;;;1.60;;
57335;SDS011;43171;50.994;18.204;2022-07-09T15:06:19;4.20;;;1.70;;
57335;SDS011;43171;50.994;18.204;2022-07-09T15:09:04;3.00;;;1.50;;
57335;SDS011;43171;50.994;18.204;2022-07-09T15:11:48;2.30;;;1.60;;
57335;SDS011;43171;50.994;18.204;2022-07-09T15:14:32;3.90;;;1.60;;
57335;SDS011;43171;50.994;18.204;2022-07-09T15:17:16;3.70;;;1.70;;
57335;SDS011;43171;50.994;18.204;2022-07-09T15:20:00;3.80;;;1.60;;
57335;SDS011;43171;50.994;18.204;2022-07-09T15:22:44;2.60;;;1.80;;
57335;SDS011;43171;50.994;18.204;2022-07-09T15:25:29;3.70;;;2.20;;
57335;SDS011;43171;50.994;18.204;2022-07-09T15:28:13;3.30;;;2.00;;
57335;SDS011;43171;50.994;18.204;2022-07-09T15:30:58;5.50;;;2.20;;
57335;SDS011;43171;50.994;18.204;2022-07-09T15:33:42;3.70;;;2.10;;
57335;SDS011;43171;50.994;18.204;2022-07-09T15:36:26;3.20;;;2.00;;
57335;SDS011;43171;50.994;18.204;2022-07-09T15:39:10;3.60;;;2.20;;
57335;SDS011;43171;50.994;18.204;2022-07-09T15:41:54;4.70;;;2.50;;
57335;SDS011;43171;50.994;18.204;2022-07-09T15:44:38;5.40;;;2.60;;
57335;SDS011;43171;50.994;18.204;2022-07-09T15:47:23;4.70;;;2.80;;
57335;SDS011;43171;50.994;18.204;2022-07-09T15:50:07;5.10;;;2.50;;
57335;SDS011;43171;50.994;18.204;2022-07-09T15:52:52;4.50;;;2.20;;
57335;SDS011;43171;50.994;18.204;2022-07-09T15:55:36;4.10;;;2.20;;
57335;SDS011;43171;50.994;18.204;2022-07-09T15:58:20;3.80;;;2.20;;
57335;SDS011;43171;50.994;18.204;2022-07-09T16:01:04;4.40;;;2.00;;
57335;SDS011;43171;50.994;18.204;2022-07-09T16:03:48;4.20;;;2.30;;
57335;SDS011;43171;50.994;18.204;2022-07-09T16:06:32;3.50;;;1.70;;
57335;SDS011;43171;50.994;18.204;2022-07-09T16:09:17;3.90;;;2.00;;
57335;SDS011;43171;50.994;18.204;2022-07-09T16:12:01;4.50;;;1.80;;
57335;SDS011;43171;50.994;18.204;2022-07-09T16:15:04;2.50;;;1.70;;
57335;SDS011;43171;50.994;18.204;2022-07-09T16:17:50;3.30;;;1.70;;
57335;SDS011;43171;50.994;18.204;2022-07-09T16:20:35;3.10;;;1.60;;
57335;SDS011;43171;50.994;18.204;2022-07-09T16:23:20;3.90;;;2.10;;
57335;SDS011;43171;50.994;18.204;2022-07-09T16:26:04;4.30;;;2.10;;
57335;SDS011;43171;50.994;18.204;2022-07-09T16:28:48;3.60;;;1.90;;
57335;SDS011;43171;50.994;18.204;2022-07-09T16:31:33;4.30;;;1.80;;
57335;SDS011;43171;50.994;18.204;2022-07-09T16:34:17;5.10;;;1.90;;
57335;SDS011;43171;50.994;18.204;2022-07-09T16:37:01;3.80;;;1.80;;
57335;SDS011;43171;50.994;18.204;2022-07-09T16:39:46;4.50;;;2.10;;
57335;SDS011;43171;50.994;18.204;2022-07-09T16:42:33;4.10;;;1.80;;